• Join FlightAware (Why Join?)
  • Login
  • US Flag 
05:35PM EDT


 

Airport Tracker/Info


-or-


 

Live Flight TrackerFlight Track Log ✈ SKW5519 ✈ 10-Oct-2013 ✈ KDEN - KMSO

Flight Track Log - Related Links

Times and Time Zones

All times are in EDT time to prevent confusion due to time zone crossing. See the SKW5519 flight status page for this flight to view local times or setup timezone preferences in your user account.

Time Position Orientation Groundspeed Altitude Reporting Facility
EDT Latitude Longitude Course Direction KTS MPH feet Rate Location/Type
05:01PM 39.9333 -104.6833 343° North 216 249 7,000  Level Denver TRACON
05:02PM 40.0000 -104.6667 11° North 291 335 8,100 1,500 Climbing Denver TRACON
05:03PM 40.0833 -104.6667 360° North 321 369 9,900 1,680 Climbing Denver TRACON
05:04PM 40.1303 -104.6775 350° North 325 374 10,700 1,800 Climbing Denver Center
05:05PM 40.2142 -104.7425 329° Northwest 323 372 12,700 1,620 Climbing Denver Center
05:06PM 40.2842 -104.8303 316° Northwest 345 397 14,100 1,380 Climbing Denver Center
05:07PM 40.3762 -105.2613 343° North  Level Estimated
05:07PM 40.3489 -104.9303 310° West 361 415 15,600  Level Denver Center
05:08PM 40.4394 -105.0197 323° Northwest 378 435 17,300 1,500 Climbing Denver Center
05:09PM 40.5408 -105.0547 345° North 391 450 18,800 1,200 Climbing Denver Center
05:10PM 40.6614 -105.0350 North 403 464 19,900 960 Climbing Denver Center
05:11PM 40.7706 -105.0381 359° North 410 472 20,900 960 Climbing Denver Center
05:12PM 40.8486 -105.1356 317° Northwest 395 455 21,900 1,020 Climbing Denver Center
05:13PM 40.9411 -105.2175 326° Northwest 409 471 23,100 1,020 Climbing Denver Center
05:14PM 41.0447 -105.2975 330° Northwest 411 473 24,100 720 Climbing Denver Center
05:15PM 41.1550 -105.3886 328° Northwest 415 478 24,700 600 Climbing Denver Center
05:16PM 41.2564 -105.4700 329° Northwest 436 502 25,400 720 Climbing Denver Center
05:17PM 41.3839 -105.5422 337° Northwest 446 513 26,200 840 Climbing Denver Center
05:18PM 41.4939 -105.6069 336° Northwest 448 516 27,200 780 Climbing Denver Center
05:19PM 41.6183 -105.6803 336° Northwest 441 507 27,900 600 Climbing Denver Center
05:20PM 41.7111 -105.7683 325° Northwest 433 498 28,500 600 Climbing Denver Center
05:21PM 41.8044 -105.8994 314° West 431 496 29,200 480 Climbing Denver Center
05:22PM 41.8839 -106.0114 314° West 432 497 29,600 360 Climbing Denver Center
05:23PM 41.9783 -106.1442 314° West 436 502 30,000 480 Climbing Denver Center
05:24PM 42.0594 -106.2567 314° West 436 502 30,700 660 Climbing Denver Center
05:25PM 42.1367 -106.3683 313° West 431 496 31,400 600 Climbing Denver Center
05:26PM 42.2283 -106.4972 314° West 427 491 32,000 240 Climbing Denver Center
05:27PM 42.3194 -106.6269 314° West 430 495 32,000 180 Level Denver Center
05:29PM 42.4028 -106.7467 313° West 444 511 32,400 420 Climbing Denver Center
05:30PM 42.4828 -106.8606 314° West 438 504 32,900 480 Climbing Denver Center
05:31PM 42.5725 -106.9917 313° West 433 498 33,500 480 Climbing Denver Center
05:32PM 42.6542 -107.1064 314° West 431 496 34,000 240 Climbing Denver Center
05:33PM 42.7400 -107.2339 313° West 425 489 34,000  Level Denver Center
05:34PM 42.8197 -107.3503 313° West 435 501 34,000  Level Denver Center
05:34PM 42.8856 -107.4483 313° West 438 504 34,000  Level Salt Lake Center
05:35PM 42.9700 -107.5722 313° West 444 511 34,000  Level Salt Lake Center
05:36PM 43.0533 -107.6956 313° West 443 510 34,000  Level Salt Lake Center
05:38PM 43.1367 -107.8194 313° West 443 510 34,000  Level Salt Lake Center
05:39PM 43.2356 -107.9681 312° West 441 507 34,100 240 Climbing Salt Lake Center
05:40PM 43.3186 -108.0903 313° West 439 505 34,600 480 Climbing Salt Lake Center
05:41PM 43.3989 -108.2122 312° West 432 497 35,100 480 Climbing Salt Lake Center
05:42PM 43.4781 -108.3328 312° West 426 490 35,700 420 Climbing Salt Lake Center
05:43PM 43.5550 -108.4492 312° West 416 479 36,000 120 Climbing Salt Lake Center
05:44PM 43.6317 -108.5678 312° West 414 476 36,000  Level Salt Lake Center
05:45PM 43.7275 -108.7133 312° West 423 487 36,000  Level Salt Lake Center
05:46PM 43.8067 -108.8367 312° West 427 491 36,000  Level Salt Lake Center
05:47PM 43.8872 -108.9597 312° West 428 493 36,000  Level Salt Lake Center
05:48PM 43.9672 -109.0828 312° West 430 495 36,000  Level Salt Lake Center
05:49PM 44.0475 -109.2086 312° West 433 498 36,000  Level Salt Lake Center
05:50PM 44.1286 -109.3358 312° West 436 502 36,000  Level Salt Lake Center
05:51PM 44.2225 -109.4814 312° West 437 503 36,000  Level Salt Lake Center
05:52PM 44.2981 -109.6017 311° West 434 499 36,000  Level Salt Lake Center
05:53PM 44.3886 -109.7436 312° West 436 502 36,000  Level Salt Lake Center
05:54PM 44.4661 -109.8669 311° West 440 506 36,000  Level Salt Lake Center
05:55PM 44.5547 -110.0111 311° West 439 505 36,000  Level Salt Lake Center
05:56PM 44.6306 -110.1319 311° West 432 497 36,000  Level Salt Lake Center
05:57PM 44.7183 -110.2742 311° West 432 497 36,000  Level Salt Lake Center
05:58PM 44.7931 -110.3975 311° West 433 498 36,000  Level Salt Lake Center
05:59PM 44.8803 -110.5400 311° West 432 497 36,000  Level Salt Lake Center
06:00PM 44.9556 -110.6600 312° West 429 494 36,000  Level Salt Lake Center
06:01PM 45.0417 -110.8031 310° West 430 495 36,000  Level Salt Lake Center
06:02PM 45.1186 -110.9303 311° West 428 493 36,100  Climbing Salt Lake Center
06:03PM 45.1958 -111.0597 310° West 423 487 36,000 -60 Descending Salt Lake Center
06:04PM 45.2714 -111.1867 310° West 415 478 36,000  Level Salt Lake Center
06:05PM 45.3525 -111.3236 310° West 413 475 36,000  Level Salt Lake Center
06:06PM 45.4281 -111.4514 310° West 413 475 36,000  Level Salt Lake Center
06:08PM 45.5042 -111.5800 310° West 415 478 36,000  Level Salt Lake Center
06:09PM 45.5792 -111.7097 310° West 417 480 36,000  Level Salt Lake Center
06:10PM 45.6544 -111.8400 310° West 417 480 36,000 -120 Level Salt Lake Center
06:11PM 45.7311 -111.9694 310° West 418 481 35,800 -600 Descending Salt Lake Center
06:12PM 45.8083 -112.1050 309° West 429 494 34,800 -1,020 Descending Salt Lake Center
06:13PM 45.8744 -112.2772 299° West 450 518 33,700 -1,020 Descending Salt Lake Center
06:14PM 45.9328 -112.4381 298° West 447 514 32,700 -1,020 Descending Salt Lake Center
06:15PM 45.9897 -112.5950 298° West 437 503 31,600 -1,260 Descending Salt Lake Center
06:16PM 46.0467 -112.7561 297° West 444 511 30,100 -1,800 Descending Salt Lake Center
06:17PM 46.1031 -112.9181 297° West 446 513 27,900 -2,400 Descending Salt Lake Center
06:18PM 46.1569 -113.0781 296° West 438 504 25,200 -2,760 Descending Salt Lake Center
06:19PM 46.2158 -113.2439 297° West 422 486 22,300 -2,640 Descending Salt Lake Center
06:20PM 46.2661 -113.3894 297° West 419 482 19,900 -2,520 Descending Salt Lake Center
06:21PM 46.3194 -113.5472 296° West 408 470 17,200 -2,340 Descending Salt Lake Center
06:22PM 46.3672 -113.6847 297° West 389 448 15,100 -1,140 Descending Salt Lake Center
06:23PM 46.4089 -113.8078 296° West 319 367 14,900 -360 Descending Salt Lake Center
06:24PM 46.4400 -113.8983 297° West 262 302 14,400 -1,200 Descending Salt Lake Center
06:25PM 46.4747 -113.9914 298° West 247 284 12,400 -1,680 Descending Salt Lake Center
06:26PM 46.5428 -114.0083 350° North 244 281 11,000 -1,440 Descending Salt Lake Center
06:27PM 46.6083 -114.0250 350° North 240 276 9,500 -1,500 Descending Salt Lake Center
06:28PM 46.6822 -114.0386 353° North 248 285 8,000 -1,320 Descending Salt Lake Center
06:29PM 46.7494 -114.0500 353° North 246 283 6,800 -1,020 Descending Salt Lake Center
06:30PM 46.8125 -114.0372 North 217 250 5,900 -1,080 Descending Salt Lake Center
06:31PM 46.8583 -114.0272 North 170 196 4,700 -1,140 Descending Salt Lake Center
06:32PM 46.8961 -114.0578 331° Northwest 150 173 3,600 -780 Descending Salt Lake Center
06:33PM 46.9178 -114.0947 311° West 141 162 3,200 -420 Descending Salt Lake Center